Time;durP1;ratioP1;P1;durP2;ratioP2;P2;SDS_P1;SDS_P2;PMS_P1;PMS_P2;Temp;Humidity;BMP_temperature;BMP_pressure;BME280_temperature;BME280_humidity;BME280_pressure;Samples;Min_cycle;Max_cycle;Signal;HPM_P1;HPM_P2
2023/05/22 00:01:18;;;;;;;22.40;20.00;;;17.60;99.90;;;;;;5094331;28;20044;-71
2023/05/22 00:03:44;;;;;;;23.40;19.93;;;17.60;99.90;;;;;;5093826;28;20121;-71
2023/05/22 00:06:10;;;;;;;27.03;21.13;;;17.60;99.90;;;;;;5094133;28;20123;-71
2023/05/22 00:08:37;;;;;;;25.37;19.80;;;17.60;99.90;;;;;;5075791;28;20055;-71
2023/05/22 00:11:03;;;;;;;23.17;19.83;;;17.60;99.90;;;;;;5076271;28;20078;-71
2023/05/22 00:13:29;;;;;;;25.47;20.17;;;17.60;99.90;;;;;;5075519;28;20158;-71
2023/05/22 00:15:55;;;;;;;22.50;20.10;;;17.60;99.90;;;;;;5093919;28;20074;-71
2023/05/22 00:18:21;;;;;;;25.10;19.83;;;17.60;99.90;;;;;;5093931;28;20487;-70
2023/05/22 00:20:47;;;;;;;23.27;19.50;;;17.60;99.90;;;;;;5075470;28;20047;-71
2023/05/22 00:23:13;;;;;;;24.90;20.10;;;17.60;99.90;;;;;;5093682;28;20149;-71
2023/05/22 00:25:39;;;;;;;23.10;19.77;;;17.60;99.90;;;;;;5093583;28;20129;-72
2023/05/22 00:28:05;;;;;;;25.07;19.20;;;17.70;99.90;;;;;;5093800;28;20052;-71
2023/05/22 00:30:32;;;;;;;28.47;20.53;;;17.60;99.90;;;;;;5093348;28;20047;-71
2023/05/22 00:32:58;;;;;;;24.00;20.80;;;17.60;99.90;;;;;;5074975;28;20127;-71
2023/05/22 00:35:23;;;;;;;25.63;20.93;;;17.60;99.90;;;;;;5093380;28;20142;-71
2023/05/22 00:37:49;;;;;;;22.90;20.53;;;17.60;99.90;;;;;;5075242;28;20048;-71
2023/05/22 00:40:15;;;;;;;26.87;21.73;;;17.60;99.90;;;;;;5093510;28;20048;-71
2023/05/22 00:42:43;;;;;;;22.53;20.17;;;17.60;99.90;;;;;;5093184;28;20119;-71
2023/05/22 00:45:15;;;;;;;29.20;20.97;;;17.60;99.90;;;;;;5075580;28;20472;-71
2023/05/22 00:47:41;;;;;;;25.03;21.20;;;17.60;99.90;;;;;;5093232;28;20116;-71
2023/05/22 00:50:10;;;;;;;24.90;20.83;;;17.60;99.90;;;;;;5093256;28;20159;-71
2023/05/22 00:52:40;;;;;;;27.07;23.13;;;17.50;99.90;;;;;;5093121;28;20083;-71
2023/05/22 00:55:07;;;;;;;26.80;20.00;;;17.50;99.90;;;;;;5093481;28;20086;-71
2023/05/22 00:57:34;;;;;;;24.37;20.53;;;17.50;99.90;;;;;;5075169;28;20056;-71
2023/05/22 01:00:04;;;;;;;25.43;20.77;;;17.50;99.90;;;;;;5075404;28;20485;-71
2023/05/22 01:02:31;;;;;;;27.10;21.77;;;17.50;99.90;;;;;;5093080;28;20150;-70
2023/05/22 01:04:57;;;;;;;22.57;20.27;;;17.50;99.90;;;;;;5092976;28;20055;-70
2023/05/22 01:07:23;;;;;;;24.30;20.20;;;17.50;99.90;;;;;;5092961;28;20507;-70
2023/05/22 01:09:51;;;;;;;27.40;22.63;;;17.50;99.90;;;;;;5092786;28;20044;-70
2023/05/22 01:12:50;;;;;;;26.37;23.63;;;17.50;99.90;;;;;;5075375;28;20048;-70
2023/05/22 01:15:28;;;;;;;27.33;22.93;;;17.50;99.90;;;;;;5074545;28;20052;-70
2023/05/22 01:18:18;;;;;;;25.40;22.70;;;17.50;99.90;;;;;;5092845;28;20050;-71
2023/05/22 01:21:05;;;;;;;24.93;22.20;;;17.40;99.90;;;;;;5092649;28;20044;-70
2023/05/22 01:23:40;;;;;;;29.00;22.53;;;17.30;99.90;;;;;;5074982;28;20040;-71
2023/05/22 01:26:11;;;;;;;27.92;23.92;;;17.30;99.90;;;;;;5075370;28;20055;-71
2023/05/22 01:28:52;;;;;;;27.70;23.93;;;17.30;99.90;;;;;;5092656;28;20048;-71
2023/05/22 01:31:24;;;;;;;27.70;24.57;;;17.20;99.90;;;;;;5074894;28;20511;-71
2023/05/22 01:33:59;;;;;;;26.13;23.33;;;17.20;99.90;;;;;;5092500;28;20530;-71
2023/05/22 01:36:30;;;;;;;27.90;23.37;;;17.20;99.90;;;;;;5092648;28;20483;-71
2023/05/22 01:39:00;;;;;;;26.60;23.67;;;17.20;99.90;;;;;;5092584;28;20090;-72
2023/05/22 01:41:28;;;;;;;32.60;26.40;;;17.20;99.90;;;;;;5074844;28;20052;-71
2023/05/22 01:43:54;;;;;;;27.43;24.37;;;17.20;99.90;;;;;;5074412;28;20052;-71
2023/05/22 01:46:19;;;;;;;28.30;24.47;;;17.30;99.90;;;;;;5078640;28;20044;-71
2023/05/22 01:48:45;;;;;;;27.37;23.77;;;17.30;99.90;;;;;;5078268;28;20081;-71
2023/05/22 01:51:30;;;;;;;27.77;24.77;;;17.30;99.90;;;;;;5096909;28;20096;-71
2023/05/22 01:54:09;;;;;;;28.60;25.45;;;17.30;99.90;;;;;;5096487;28;20040;-71
2023/05/22 01:56:53;;;;;;;28.83;23.83;;;17.20;99.90;;;;;;5078675;28;20048;-71
2023/05/22 01:59:36;;;;;;;28.50;25.40;;;17.20;99.90;;;;;;5078958;28;20090;-71
2023/05/22 02:02:06;;;;;;;28.10;25.10;;;17.20;99.90;;;;;;5078347;28;20471;-71
2023/05/22 02:04:38;;;;;;;29.77;25.73;;;17.20;99.90;;;;;;5096472;28;20044;-71
2023/05/22 02:07:05;;;;;;;31.10;25.50;;;17.10;99.90;;;;;;5078607;28;20079;-71
2023/05/22 02:09:32;;;;;;;29.43;26.17;;;17.20;99.90;;;;;;5078267;28;20048;-72
2023/05/22 02:11:59;;;;;;;29.50;26.17;;;17.20;99.90;;;;;;5061574;28;20048;-71
2023/05/22 02:14:25;;;;;;;28.83;25.23;;;17.20;99.90;;;;;;5045947;28;20057;-71
2023/05/22 02:16:51;;;;;;;27.93;24.93;;;17.20;99.90;;;;;;5054955;28;20061;-72
2023/05/22 02:19:17;;;;;;;31.33;26.50;;;17.20;99.90;;;;;;5056290;28;20103;-72
2023/05/22 02:21:43;;;;;;;27.97;24.97;;;17.20;99.90;;;;;;5054432;28;20567;-72
2023/05/22 02:24:09;;;;;;;29.47;26.30;;;17.10;99.90;;;;;;5055775;28;20084;-72
2023/05/22 02:26:36;;;;;;;28.60;25.33;;;17.10;99.90;;;;;;5055080;28;20167;-72
2023/05/22 02:29:02;;;;;;;29.67;25.90;;;17.20;99.90;;;;;;5054269;28;20493;-71
2023/05/22 02:31:28;;;;;;;33.43;27.97;;;17.10;99.90;;;;;;5055808;28;20045;-71
2023/05/22 02:33:54;;;;;;;29.67;25.13;;;17.20;99.90;;;;;;5054202;28;20081;-71
2023/05/22 02:36:19;;;;;;;30.27;27.17;;;17.10;99.90;;;;;;5055553;28;20084;-71
2023/05/22 02:38:45;;;;;;;29.20;26.23;;;17.10;99.90;;;;;;5054233;28;20045;-71
2023/05/22 02:41:11;;;;;;;30.17;26.77;;;17.10;99.90;;;;;;5055624;28;20091;-71
2023/05/22 02:43:36;;;;;;;29.50;25.57;;;17.10;99.90;;;;;;5054839;28;20048;-71
2023/05/22 02:46:02;;;;;;;30.03;26.83;;;17.10;99.90;;;;;;5055364;28;20080;-71
2023/05/22 02:48:28;;;;;;;28.00;24.50;;;17.20;99.90;;;;;;5054543;28;20051;-71
2023/05/22 02:50:54;;;;;;;29.30;26.30;;;17.10;99.90;;;;;;5053669;28;20049;-71
2023/05/22 02:53:20;;;;;;;28.57;25.47;;;17.10;99.90;;;;;;5055154;28;20091;-71
2023/05/22 02:55:47;;;;;;;28.43;25.40;;;17.10;99.90;;;;;;5036997;28;20044;-71
2023/05/22 02:58:13;;;;;;;34.50;26.47;;;17.10;99.90;;;;;;5054964;28;20049;-71
2023/05/22 03:00:39;;;;;;;28.33;25.23;;;17.10;99.90;;;;;;5055320;28;20084;-71
2023/05/22 03:03:06;;;;;;;30.00;26.77;;;17.10;99.90;;;;;;5053765;28;20489;-71
2023/05/22 03:05:34;;;;;;;30.03;26.63;;;17.10;99.90;;;;;;5055035;28;20053;-71
2023/05/22 03:08:00;;;;;;;28.87;25.73;;;17.10;99.90;;;;;;5054845;28;20044;-71
2023/05/22 03:10:26;;;;;;;29.33;26.30;;;17.00;99.90;;;;;;5053707;28;20045;-71
2023/05/22 03:12:51;;;;;;;29.47;26.27;;;17.00;99.90;;;;;;5053644;28;20037;-71
2023/05/22 03:15:17;;;;;;;31.47;25.93;;;17.00;99.90;;;;;;5037460;28;20056;-71
2023/05/22 03:17:43;;;;;;;29.30;26.03;;;16.90;99.90;;;;;;5054888;28;20049;-71
2023/05/22 03:20:09;;;;;;;28.07;24.83;;;16.90;99.90;;;;;;5054474;28;20183;-71
2023/05/22 03:22:35;;;;;;;29.10;25.70;;;16.90;99.90;;;;;;5054645;28;20045;-71
2023/05/22 03:25:01;;;;;;;28.77;25.77;;;16.90;99.90;;;;;;5054681;28;20067;-71
2023/05/22 03:27:26;;;;;;;28.63;25.47;;;16.90;99.90;;;;;;5054817;28;20481;-71
2023/05/22 03:29:52;;;;;;;31.33;28.07;;;16.90;99.90;;;;;;5054434;28;20342;-71
2023/05/22 03:32:18;;;;;;;29.63;26.43;;;16.80;99.90;;;;;;5054554;28;20041;-72
2023/05/22 03:34:44;;;;;;;29.70;26.47;;;16.80;99.90;;;;;;5054732;28;20060;-72
2023/05/22 03:37:10;;;;;;;30.50;27.27;;;16.80;99.90;;;;;;5052874;28;20080;-71
2023/05/22 03:39:35;;;;;;;30.90;26.73;;;16.80;99.90;;;;;;5053654;28;20055;-71
2023/05/22 03:42:01;;;;;;;32.40;27.57;;;16.70;99.90;;;;;;5053242;28;20041;-72
2023/05/22 03:44:27;;;;;;;28.67;25.77;;;16.70;99.90;;;;;;5069939;28;20049;-71
2023/05/22 03:46:53;;;;;;;33.63;27.13;;;16.70;99.90;;;;;;5053023;28;20045;-71
2023/05/22 03:49:18;;;;;;;30.67;27.43;;;16.70;99.90;;;;;;5036735;28;20267;-71
2023/05/22 03:51:44;;;;;;;30.53;25.97;;;16.70;99.90;;;;;;5054192;28;20056;-71
2023/05/22 03:54:10;;;;;;;32.90;27.57;;;16.60;99.90;;;;;;5053956;28;20454;-71
2023/05/22 03:56:36;;;;;;;28.80;25.23;;;16.60;99.90;;;;;;5054371;28;20070;-71
2023/05/22 03:59:02;;;;;;;33.07;28.50;;;16.60;99.90;;;;;;5052647;28;20056;-71
2023/05/22 04:01:28;;;;;;;31.97;27.30;;;16.70;99.90;;;;;;5054192;28;20428;-71
2023/05/22 04:03:54;;;;;;;29.60;26.33;;;16.60;99.90;;;;;;5036139;28;20477;-72
2023/05/22 04:06:20;;;;;;;31.13;27.53;;;16.60;99.90;;;;;;5053785;28;20051;-71
2023/05/22 04:08:47;;;;;;;32.23;28.40;;;16.50;99.90;;;;;;5052759;28;20049;-71
2023/05/22 04:11:17;;;;;;;31.20;26.77;;;16.60;99.90;;;;;;5053725;28;20114;-71
2023/05/22 04:13:43;;;;;;;32.60;27.03;;;16.50;99.90;;;;;;5066892;28;20056;-72
2023/05/22 04:16:09;;;;;;;32.57;29.13;;;16.50;99.90;;;;;;5075860;28;20105;-72
2023/05/22 04:18:35;;;;;;;30.47;27.23;;;16.50;99.90;;;;;;5075746;28;20129;-72
2023/05/22 04:21:01;;;;;;;31.57;27.63;;;16.50;99.90;;;;;;5093387;28;20055;-71
2023/05/22 04:23:27;;;;;;;33.30;27.43;;;16.60;99.90;;;;;;5094195;28;20119;-71
2023/05/22 04:25:54;;;;;;;31.10;27.73;;;16.50;99.90;;;;;;5075452;28;20131;-75
2023/05/22 04:28:22;;;;;;;32.53;27.20;;;16.50;99.90;;;;;;5093921;28;20052;-72
2023/05/22 04:30:48;;;;;;;31.27;26.70;;;16.60;99.90;;;;;;5076148;28;20093;-71
2023/05/22 04:33:15;;;;;;;30.20;26.60;;;16.50;99.90;;;;;;5093230;28;20044;-72
2023/05/22 04:35:41;;;;;;;30.53;26.50;;;16.60;99.90;;;;;;5075818;28;20055;-71
2023/05/22 04:38:06;;;;;;;33.03;26.80;;;16.60;99.90;;;;;;5075383;28;20061;-71
2023/05/22 04:40:33;;;;;;;30.17;26.50;;;16.60;99.90;;;;;;5075667;28;20134;-71
2023/05/22 04:43:00;;;;;;;35.73;29.07;;;16.60;99.90;;;;;;5093101;28;20507;-72
2023/05/22 04:45:27;;;;;;;31.73;25.57;;;16.60;99.90;;;;;;5093470;28;20095;-71
2023/05/22 04:47:53;;;;;;;33.27;27.50;;;16.70;99.90;;;;;;5075470;28;20087;-71
2023/05/22 04:50:19;;;;;;;29.93;25.10;;;16.70;99.90;;;;;;5093227;28;20148;-72
2023/05/22 04:52:46;;;;;;;31.97;27.53;;;16.80;99.90;;;;;;5075472;28;20132;-72
2023/05/22 04:55:12;;;;;;;30.13;25.10;;;16.80;99.90;;;;;;5092982;28;20127;-71
2023/05/22 04:57:38;;;;;;;29.50;26.30;;;16.80;99.90;;;;;;5093293;28;20451;-71
2023/05/22 05:00:05;;;;;;;29.77;25.83;;;16.80;99.90;;;;;;5092910;28;20460;-71
2023/05/22 05:02:31;;;;;;;30.83;26.53;;;16.80;99.90;;;;;;5093207;28;20105;-72
2023/05/22 05:04:57;;;;;;;31.97;25.27;;;16.80;99.90;;;;;;5074950;28;20047;-75
2023/05/22 05:07:23;;;;;;;35.20;26.10;;;16.80;99.90;;;;;;5093195;28;20084;-71
2023/05/22 05:09:50;;;;;;;31.70;26.20;;;16.80;99.90;;;;;;5075059;28;20059;-71
2023/05/22 05:12:16;;;;;;;32.23;26.70;;;16.80;99.90;;;;;;5092662;28;20114;-71
2023/05/22 05:14:42;;;;;;;31.13;27.70;;;16.70;99.90;;;;;;5092792;28;20063;-71
2023/05/22 05:17:07;;;;;;;29.37;26.10;;;16.80;99.90;;;;;;5092651;28;20127;-72
2023/05/22 05:19:33;;;;;;;32.20;25.63;;;16.80;99.90;;;;;;5108713;28;20044;-71
2023/05/22 05:22:00;;;;;;;30.57;23.07;;;16.80;99.90;;;;;;5092812;28;20044;-75
2023/05/22 05:24:26;;;;;;;32.97;22.80;;;16.80;99.90;;;;;;5074967;28;20079;-71
2023/05/22 05:26:52;;;;;;;29.17;22.37;;;16.80;99.90;;;;;;5093118;28;20044;-71
2023/05/22 05:29:17;;;;;;;26.07;21.90;;;16.80;99.90;;;;;;5092658;28;20075;-72
2023/05/22 05:31:43;;;;;;;30.87;18.83;;;16.80;99.90;;;;;;5074708;28;20051;-72
2023/05/22 05:34:09;;;;;;;25.00;15.93;;;16.70;99.90;;;;;;5074562;28;20040;-72
2023/05/22 05:36:34;;;;;;;25.30;13.80;;;16.70;99.90;;;;;;5106068;28;20090;-71
2023/05/22 05:39:00;;;;;;;20.80;11.57;;;16.60;99.90;;;;;;5113015;28;20092;-75
2023/05/22 05:41:26;;;;;;;24.13;12.50;;;16.60;99.90;;;;;;5094967;28;20043;-71
2023/05/22 05:43:52;;;;;;;19.20;11.00;;;16.50;99.90;;;;;;5095012;28;20036;-72
2023/05/22 05:46:18;;;;;;;21.07;10.80;;;16.50;99.90;;;;;;5094468;28;20130;-72
2023/05/22 05:48:44;;;;;;;21.93;10.40;;;16.40;99.90;;;;;;5113170;28;20601;-71
2023/05/22 05:51:10;;;;;;;19.67;9.70;;;16.30;99.90;;;;;;5094717;28;20131;-71
2023/05/22 05:53:39;;;;;;;25.40;10.70;;;16.30;99.90;;;;;;5094811;28;20479;-72
2023/05/22 05:56:06;;;;;;;19.70;9.47;;;16.30;99.90;;;;;;5094493;28;20127;-72
2023/05/22 05:58:32;;;;;;;18.03;10.03;;;16.40;99.90;;;;;;5094961;28;20454;-73
2023/05/22 06:00:58;;;;;;;17.77;8.80;;;16.40;99.90;;;;;;5112736;28;20040;-73
2023/05/22 06:03:26;;;;;;;15.80;8.33;;;16.30;99.90;;;;;;5094553;28;20055;-73
2023/05/22 06:05:52;;;;;;;13.70;8.10;;;16.40;99.90;;;;;;5094794;28;20421;-73
2023/05/22 06:08:21;;;;;;;16.47;8.47;;;16.30;99.90;;;;;;5112753;28;20104;-73
2023/05/22 06:10:47;;;;;;;14.63;8.23;;;16.40;99.90;;;;;;5112852;28;20043;-73
2023/05/22 06:13:13;;;;;;;20.13;10.00;;;16.40;99.90;;;;;;5112112;28;20051;-73
2023/05/22 06:15:38;;;;;;;21.17;9.10;;;16.40;99.90;;;;;;5112717;28;20419;-71
2023/05/22 06:18:04;;;;;;;15.90;8.30;;;16.40;99.90;;;;;;5077759;28;20055;-74
2023/05/22 06:20:30;;;;;;;15.80;8.13;;;16.50;99.90;;;;;;5095008;28;20051;-72
2023/05/22 06:22:56;;;;;;;14.57;8.33;;;16.50;99.90;;;;;;5110791;28;20043;-73
2023/05/22 06:25:24;;;;;;;15.87;9.50;;;16.50;99.90;;;;;;5111483;28;20047;-72
2023/05/22 06:27:50;;;;;;;19.07;9.27;;;16.50;99.90;;;;;;5094710;28;20054;-72
2023/05/22 06:30:16;;;;;;;15.73;8.43;;;16.60;99.90;;;;;;5094419;28;20491;-72
2023/05/22 06:32:42;;;;;;;14.90;8.53;;;16.60;99.90;;;;;;5097343;28;20043;-72
2023/05/22 06:35:09;;;;;;;15.73;8.23;;;16.60;99.90;;;;;;5081344;28;20087;-72
2023/05/22 06:37:35;;;;;;;20.87;8.60;;;16.60;99.90;;;;;;5116546;28;20058;-72
2023/05/22 06:40:02;;;;;;;20.00;9.53;;;16.70;99.90;;;;;;5116428;28;20065;-72
2023/05/22 06:42:27;;;;;;;20.23;9.17;;;16.80;99.90;;;;;;5098124;28;20207;-72
2023/05/22 06:44:53;;;;;;;18.97;8.87;;;16.90;99.90;;;;;;5097917;28;20047;-72
2023/05/22 06:47:19;;;;;;;16.83;8.83;;;16.90;99.90;;;;;;5098147;28;20095;-72
2023/05/22 06:49:44;;;;;;;18.03;8.17;;;17.00;99.90;;;;;;5116212;28;20126;-71
2023/05/22 06:52:11;;;;;;;13.77;8.07;;;17.10;99.90;;;;;;5115827;28;20052;-71
2023/05/22 06:54:41;;;;;;;18.10;8.00;;;17.20;99.90;;;;;;5081461;28;20047;-71
2023/05/22 06:57:07;;;;;;;17.00;8.07;;;17.30;99.90;;;;;;5115849;28;20048;-72
2023/05/22 06:59:33;;;;;;;17.13;7.40;;;17.30;99.90;;;;;;5081000;28;20058;-71
2023/05/22 07:01:59;;;;;;;14.20;7.67;;;17.30;99.90;;;;;;5116141;28;20407;-72
2023/05/22 07:04:24;;;;;;;14.73;7.60;;;17.30;99.90;;;;;;5115732;28;20120;-71
2023/05/22 07:06:50;;;;;;;17.93;8.23;;;17.30;99.90;;;;;;5097993;28;20052;-71
2023/05/22 07:09:18;;;;;;;15.77;8.53;;;17.30;99.90;;;;;;5115570;28;20050;-72
2023/05/22 07:11:45;;;;;;;13.10;8.00;;;17.40;99.90;;;;;;5115678;28;20050;-71
2023/05/22 07:14:11;;;;;;;18.53;8.43;;;17.40;99.90;;;;;;5115272;28;20399;-72
2023/05/22 07:16:38;;;;;;;16.40;8.13;;;17.40;99.90;;;;;;5115816;28;20059;-71
2023/05/22 07:19:04;;;;;;;16.07;7.63;;;17.50;99.90;;;;;;5115714;28;20521;-71
2023/05/22 07:21:31;;;;;;;17.03;9.37;;;17.50;99.90;;;;;;5097397;28;20112;-71
2023/05/22 07:23:56;;;;;;;15.73;8.23;;;17.60;99.90;;;;;;5081071;28;20047;-71
2023/05/22 07:26:22;;;;;;;15.10;8.33;;;17.60;99.90;;;;;;5115061;28;20554;-71
2023/05/22 07:28:48;;;;;;;15.30;7.17;;;17.70;99.90;;;;;;5097578;28;20040;-71
2023/05/22 07:31:14;;;;;;;15.60;6.90;;;17.70;99.90;;;;;;5115325;28;20055;-72
2023/05/22 07:33:39;;;;;;;12.10;6.90;;;17.80;99.90;;;;;;5097490;28;20086;-71
2023/05/22 07:36:05;;;;;;;14.23;7.57;;;18.00;99.90;;;;;;5115427;28;20047;-71
2023/05/22 07:38:31;;;;;;;12.83;6.13;;;18.40;99.90;;;;;;5115036;28;20051;-72
2023/05/22 07:40:57;;;;;;;15.67;7.10;;;18.60;99.90;;;;;;5079965;28;20445;-72
2023/05/22 07:43:23;;;;;;;12.37;5.90;;;18.50;99.90;;;;;;5096250;28;20093;-72
2023/05/22 07:45:48;;;;;;;11.57;5.60;;;18.40;99.90;;;;;;5115176;28;20077;-72
2023/05/22 07:48:14;;;;;;;10.40;5.20;;;18.30;99.90;;;;;;5079850;28;20040;-76
2023/05/22 07:50:44;;;;;;;14.67;6.27;;;18.10;99.90;;;;;;5096898;28;20055;-72
2023/05/22 07:53:10;;;;;;;11.97;6.07;;;18.00;99.90;;;;;;5114899;28;20136;-72
2023/05/22 07:55:36;;;;;;;12.40;5.33;;;18.00;99.90;;;;;;5096581;28;20044;-72
2023/05/22 07:58:03;;;;;;;12.20;5.13;;;17.90;99.90;;;;;;5063593;28;20044;-72
2023/05/22 08:00:28;;;;;;;11.17;5.50;;;17.90;99.90;;;;;;5114810;28;20055;-72
2023/05/22 08:02:54;;;;;;;10.23;5.60;;;17.80;99.90;;;;;;5114884;28;20046;-72
2023/05/22 08:05:20;;;;;;;10.10;5.03;;;17.80;99.90;;;;;;5079754;28;20543;-72
2023/05/22 08:07:46;;;;;;;9.20;5.23;;;17.90;99.90;;;;;;5114669;28;20040;-72
2023/05/22 08:10:16;;;;;;;9.10;4.80;;;17.90;99.90;;;;;;5114525;28;20100;-72
2023/05/22 08:12:42;;;;;;;7.87;4.13;;;17.90;99.90;;;;;;5114643;28;20035;-72
2023/05/22 08:15:08;;;;;;;8.57;4.60;;;17.90;99.90;;;;;;5096000;28;20054;-72
2023/05/22 08:17:34;;;;;;;7.20;4.60;;;17.90;99.90;;;;;;5114450;28;20395;-72
2023/05/22 08:20:00;;;;;;;10.00;5.23;;;18.10;99.90;;;;;;5114568;28;20047;-72
2023/05/22 08:22:27;;;;;;;8.90;5.10;;;18.20;99.90;;;;;;5096209;28;20464;-72
2023/05/22 08:24:53;;;;;;;8.23;4.67;;;18.40;99.90;;;;;;5114173;28;20035;-72
2023/05/22 08:27:19;;;;;;;7.50;4.93;;;18.70;99.90;;;;;;5114293;28;20101;-72
2023/05/22 08:29:45;;;;;;;8.67;4.93;;;18.70;99.90;;;;;;5095962;28;20040;-72
2023/05/22 08:32:10;;;;;;;6.57;4.27;;;18.70;99.90;;;;;;5096156;28;20047;-72
2023/05/22 08:34:36;;;;;;;8.03;4.67;;;18.70;99.90;;;;;;5095677;28;20483;-72
2023/05/22 08:37:03;;;;;;;7.60;4.20;;;18.70;99.90;;;;;;5096109;28;20081;-72
2023/05/22 08:39:30;;;;;;;6.43;4.63;;;18.70;99.90;;;;;;5095758;28;20052;-72
2023/05/22 08:41:55;;;;;;;7.90;4.93;;;18.80;99.90;;;;;;5096211;28;20051;-72
2023/05/22 08:44:21;;;;;;;8.17;4.97;;;18.80;99.90;;;;;;5113923;28;20040;-72
2023/05/22 08:46:48;;;;;;;7.53;5.17;;;18.90;99.90;;;;;;5114015;28;20104;-71
2023/05/22 08:49:16;;;;;;;8.90;4.67;;;18.90;99.90;;;;;;5114141;28;20043;-71
2023/05/22 08:51:46;;;;;;;8.80;5.77;;;18.90;99.90;;;;;;5095696;28;20058;-72
2023/05/22 08:54:14;;;;;;;10.43;6.03;;;19.00;99.90;;;;;;5095191;28;20081;-72
2023/05/22 08:56:40;;;;;;;11.57;5.90;;;19.10;99.90;;;;;;5113631;28;20074;-71
2023/05/22 08:59:07;;;;;;;9.47;5.57;;;19.10;99.90;;;;;;5113728;28;20491;-72
2023/05/22 09:01:32;;;;;;;14.13;5.87;;;19.10;99.90;;;;;;5113411;28;20044;-72
2023/05/22 09:04:02;;;;;;;9.33;6.27;;;19.10;99.90;;;;;;5113560;28;20126;-72
2023/05/22 09:06:28;;;;;;;9.93;5.93;;;19.00;99.90;;;;;;5113321;28;20082;-72
2023/05/22 09:08:58;;;;;;;9.50;6.20;;;19.10;99.90;;;;;;5113693;28;20059;-72
2023/05/22 09:11:25;;;;;;;8.67;5.93;;;19.10;99.90;;;;;;5113253;28;20047;-73
2023/05/22 09:13:51;;;;;;;12.33;6.87;;;19.00;99.90;;;;;;5095106;28;20163;-72
2023/05/22 09:16:18;;;;;;;10.90;6.30;;;19.00;99.90;;;;;;5078954;28;20051;-72
2023/05/22 09:18:44;;;;;;;10.53;7.07;;;18.90;99.90;;;;;;5095305;28;20399;-72
2023/05/22 09:21:12;;;;;;;10.20;6.90;;;18.80;99.90;;;;;;5095220;28;20052;-72
2023/05/22 09:23:38;;;;;;;11.87;6.87;;;18.80;99.90;;;;;;5078453;28;20048;-72
2023/05/22 09:26:03;;;;;;;10.00;6.50;;;18.80;99.90;;;;;;5078658;28;20048;-72
2023/05/22 09:28:36;;;;;;;10.33;7.63;;;18.90;99.90;;;;;;5113115;28;20051;-73
2023/05/22 09:31:03;;;;;;;12.30;8.20;;;18.90;99.90;;;;;;5113318;28;20051;-72
2023/05/22 09:33:30;;;;;;;11.83;7.00;;;19.00;99.90;;;;;;5094877;28;20043;-73
2023/05/22 09:35:57;;;;;;;13.77;7.87;;;19.10;99.90;;;;;;5113158;28;20116;-72
2023/05/22 09:38:29;;;;;;;12.17;8.73;;;19.30;99.90;;;;;;5113359;28;20132;-73
2023/05/22 09:40:56;;;;;;;10.40;7.33;;;19.30;99.90;;;;;;5113312;28;20058;-72
2023/05/22 09:43:24;;;;;;;13.13;8.03;;;19.40;99.90;;;;;;5095299;28;20044;-72
2023/05/22 09:45:56;;;;;;;10.07;7.23;;;19.40;99.90;;;;;;5112975;28;20043;-72
2023/05/22 09:48:22;;;;;;;11.23;7.53;;;19.50;99.90;;;;;;5094985;28;20130;-72
2023/05/22 09:50:49;;;;;;;12.87;8.43;;;19.50;99.90;;;;;;5113091;28;20193;-72
2023/05/22 09:53:17;;;;;;;11.33;8.07;;;19.60;99.90;;;;;;5061554;28;20130;-72
2023/05/22 09:55:46;;;;;;;12.97;8.47;;;19.70;99.90;;;;;;5094970;28;20477;-72
2023/05/22 09:58:15;;;;;;;13.87;8.67;;;19.80;99.90;;;;;;5112978;28;20044;-72
2023/05/22 10:00:41;;;;;;;10.97;8.70;;;19.90;99.90;;;;;;5094614;28;20040;-72
2023/05/22 10:03:19;;;;;;;14.47;9.33;;;20.00;99.90;;;;;;5113171;28;20046;-72
2023/05/22 10:05:50;;;;;;;13.10;9.27;;;20.10;99.90;;;;;;5081781;28;20048;-72
2023/05/22 10:08:27;;;;;;;12.87;8.93;;;20.10;99.90;;;;;;5117298;28;20050;-72
2023/05/22 10:10:53;;;;;;;12.70;8.90;;;20.20;99.90;;;;;;5098775;28;20180;-72
2023/05/22 10:13:22;;;;;;;12.97;9.37;;;20.20;99.90;;;;;;5081478;28;20052;-72
2023/05/22 10:15:49;;;;;;;14.70;9.43;;;20.20;99.90;;;;;;5116838;28;20090;-72
2023/05/22 10:18:16;;;;;;;12.30;8.97;;;20.20;99.90;;;;;;5116789;28;20556;-72
2023/05/22 10:20:43;;;;;;;15.83;9.50;;;20.40;99.90;;;;;;5116452;28;20119;-72
2023/05/22 10:23:09;;;;;;;11.53;8.03;;;20.60;99.90;;;;;;5098574;28;20495;-72
2023/05/22 10:25:38;;;;;;;16.67;9.53;;;20.70;99.90;;;;;;5098253;28;20487;-72
2023/05/22 10:28:06;;;;;;;14.57;9.33;;;20.70;99.90;;;;;;5098382;28;20058;-72
2023/05/22 10:30:48;;;;;;;12.30;9.53;;;20.70;99.90;;;;;;5098512;28;20040;-73
2023/05/22 10:33:32;;;;;;;12.67;9.43;;;20.70;99.90;;;;;;5116701;28;20434;-72
2023/05/22 10:36:05;;;;;;;14.23;9.07;;;20.60;99.90;;;;;;5116470;28;20039;-72
2023/05/22 10:38:49;;;;;;;13.03;9.83;;;20.60;99.90;;;;;;5098829;28;20471;-72
2023/05/22 10:41:16;;;;;;;14.07;8.40;;;20.50;99.90;;;;;;5116781;28;20136;-72
2023/05/22 10:43:42;;;;;;;12.47;9.63;;;20.50;99.90;;;;;;5097925;28;20077;-72
2023/05/22 10:46:11;;;;;;;14.10;9.10;;;20.50;99.90;;;;;;5098283;28;20106;-72
2023/05/22 10:48:47;;;;;;;11.37;9.73;;;20.60;99.90;;;;;;5097913;28;20093;-72
2023/05/22 10:51:18;;;;;;;13.80;10.20;;;20.80;99.90;;;;;;5098388;28;20048;-72
2023/05/22 10:53:44;;;;;;;15.60;10.07;;;20.80;99.90;;;;;;5116092;28;20035;-72
2023/05/22 10:56:15;;;;;;;13.70;9.77;;;21.00;99.90;;;;;;5116650;28;20051;-72
2023/05/22 10:58:43;;;;;;;11.57;9.73;;;21.00;99.90;;;;;;5115878;28;20040;-72
2023/05/22 11:01:17;;;;;;;14.20;10.07;;;21.00;99.90;;;;;;5115912;28;20120;-72
2023/05/22 11:04:23;;;;;;;14.18;10.63;;;21.20;99.90;;;;;;5097776;28;20441;-72
2023/05/22 11:07:03;;;;;;;13.70;10.27;;;21.30;99.90;;;;;;4997082;28;20512;-72
2023/05/22 11:09:30;;;;;;;11.43;9.67;;;21.50;99.90;;;;;;5090173;28;20142;-72
2023/05/22 11:12:23;;;;;;;14.33;10.63;;;21.70;99.90;;;;;;5115712;28;20108;-72
2023/05/22 11:15:05;;;;;;;15.57;9.40;;;21.80;99.90;;;;;;5111548;28;20051;-72
2023/05/22 11:17:43;;;;;;;11.40;9.40;;;21.80;99.90;;;;;;5097212;28;20048;-72
2023/05/22 11:20:19;;;;;;;12.07;10.00;;;22.00;99.90;;;;;;5097664;28;20380;-72
2023/05/22 11:23:05;;;;;;;11.13;9.57;;;22.00;99.90;;;;;;5115644;28;20047;-72
2023/05/22 11:25:33;;;;;;;13.23;9.30;;;22.00;99.90;;;;;;5097687;28;20050;-72
2023/05/22 11:28:01;;;;;;;13.03;9.43;;;22.00;99.90;;;;;;5080436;28;20059;-72
2023/05/22 11:30:29;;;;;;;11.03;9.40;;;22.00;99.90;;;;;;5115319;28;20043;-72
2023/05/22 11:32:57;;;;;;;11.53;9.20;;;21.90;99.90;;;;;;5097176;28;20054;-72
2023/05/22 11:35:23;;;;;;;11.57;9.20;;;21.80;99.90;;;;;;5115354;28;20039;-72
2023/05/22 11:37:51;;;;;;;12.77;10.23;;;21.80;99.90;;;;;;5115050;28;20087;-73
2023/05/22 11:40:23;;;;;;;11.30;9.50;;;21.80;99.90;;;;;;5097220;28;20052;-72
2023/05/22 11:42:49;;;;;;;13.27;10.43;;;21.70;99.90;;;;;;5097112;28;20044;-73
2023/05/22 11:45:16;;;;;;;13.97;10.50;;;21.70;99.90;;;;;;5097408;28;20051;-72
2023/05/22 11:47:42;;;;;;;13.40;11.00;;;21.60;99.90;;;;;;5080219;28;20090;-73
2023/05/22 11:50:10;;;;;;;14.70;11.60;;;21.60;99.90;;;;;;5096982;28;20043;-72
2023/05/22 11:52:38;;;;;;;12.60;10.83;;;21.50;99.90;;;;;;5096864;28;20079;-72
2023/05/22 11:55:04;;;;;;;16.67;10.80;;;21.50;99.90;;;;;;5096739;28;20080;-72
2023/05/22 11:57:31;;;;;;;14.70;11.17;;;21.50;99.90;;;;;;5114810;28;20044;-73
2023/05/22 11:59:57;;;;;;;16.90;11.37;;;21.50;99.90;;;;;;5096849;28;20144;-72
2023/05/22 12:02:23;;;;;;;16.57;12.50;;;21.50;99.90;;;;;;5115207;28;20102;-72
2023/05/22 12:04:56;;;;;;;16.93;11.17;;;21.40;99.90;;;;;;5079537;28;20043;-73
2023/05/22 12:07:27;;;;;;;13.40;12.03;;;21.50;99.90;;;;;;5096598;28;20047;-72
2023/05/22 12:09:57;;;;;;;14.13;11.60;;;21.50;99.90;;;;;;5096595;28;20047;-72
2023/05/22 12:12:22;;;;;;;12.50;11.17;;;21.60;99.90;;;;;;5096577;28;20044;-72
2023/05/22 12:14:49;;;;;;;15.73;11.53;;;21.60;99.90;;;;;;5079185;28;20055;-73
2023/05/22 12:17:15;;;;;;;15.70;10.73;;;21.60;99.90;;;;;;5114581;28;20047;-72
2023/05/22 12:19:42;;;;;;;16.97;10.80;;;21.60;99.90;;;;;;5114608;28;20047;-72
2023/05/22 12:22:09;;;;;;;14.23;10.73;;;21.50;99.90;;;;;;5096540;28;20134;-72
2023/05/22 12:24:45;;;;;;;15.90;10.17;;;21.50;99.90;;;;;;5114313;28;20047;-72
2023/05/22 12:27:11;;;;;;;14.57;10.63;;;21.60;99.90;;;;;;5096894;28;20049;-72
2023/05/22 12:29:38;;;;;;;21.30;11.43;;;21.50;99.90;;;;;;5113518;28;20045;-72
2023/05/22 12:32:07;;;;;;;17.77;11.93;;;21.50;99.90;;;;;;5095980;28;20086;-72
2023/05/22 12:34:43;;;;;;;16.47;11.07;;;21.40;99.90;;;;;;5095998;28;20402;-72